Terminal Aerodrome Forecast
Issued by NWS Grand Forks, ND

Home | Current Version | Previous Version | Text Only | Print | Product List | Glossary Off
Versions: 1 2 3 4 5 6 7 8 9 10 11 12 13 14 15 16

030
FTUS43 KFGF 192019 AAC
TAFGFK
TAF AMD
KGFK 192019Z 1920/2018 18015KT 4SM BR OVC004
      TEMPO 1920/1923 P6SM NSW SCT008
     FM200200 18009KT 3SM BR BKN010
     FM200700 18009KT 3SM -FZDZ BR BKN010
     FM201200 16008KT P6SM BKN003=

USA.gov is the U.S. government's official web portal to all federal, state and local government web resources and services.